createdAt,value
2018-10-21T00:00:05.563Z,8.49
2018-10-21T00:02:40.430Z,8.36
2018-10-21T00:05:15.146Z,8.37
2018-10-21T00:07:50.356Z,8.31
2018-10-21T00:10:25.269Z,8.35
2018-10-21T00:13:00.260Z,8.50
2018-10-21T00:15:35.281Z,8.57
2018-10-21T00:18:10.213Z,8.26
2018-10-21T00:20:45.635Z,8.24
2018-10-21T00:23:20.476Z,8.17
2018-10-21T00:25:55.209Z,8.41
2018-10-21T00:28:30.383Z,8.46
2018-10-21T00:31:05.167Z,8.53
2018-10-21T00:33:39.903Z,8.46
2018-10-21T00:36:14.604Z,8.50
2018-10-21T00:38:49.440Z,8.43
2018-10-21T00:41:24.212Z,8.55
2018-10-21T00:43:58.953Z,8.31
2018-10-21T00:46:33.940Z,7.85
2018-10-21T00:49:09.132Z,7.57
2018-10-21T00:51:43.861Z,7.41
2018-10-21T00:54:22.593Z,7.53
2018-10-21T00:56:57.553Z,7.27
2018-10-21T00:59:32.775Z,7.22
2018-10-21T01:02:07.391Z,7.26
2018-10-21T01:04:42.501Z,7.04
2018-10-21T01:07:17.736Z,7.26
2018-10-21T01:09:54.371Z,7.19
2018-10-21T01:12:29.436Z,7.33
2018-10-21T01:15:04.699Z,7.26
2018-10-21T01:17:41.978Z,7.06
2018-10-21T01:20:16.809Z,7.11
2018-10-21T01:22:51.726Z,7.15
2018-10-21T01:25:26.479Z,7.14
2018-10-21T01:28:01.268Z,6.94
2018-10-21T01:30:36.535Z,6.73
2018-10-21T01:33:11.693Z,7.04
2018-10-21T01:35:46.750Z,6.99
2018-10-21T01:38:21.624Z,7.03
2018-10-21T01:40:58.039Z,6.82
2018-10-21T01:43:33.768Z,6.58
2018-10-21T01:46:08.678Z,6.76
2018-10-21T01:48:43.504Z,6.89
2018-10-21T01:51:18.269Z,6.98
2018-10-21T01:53:53.345Z,7.16
2018-10-21T01:56:28.081Z,7.24
2018-10-21T01:59:02.835Z,7.36
2018-10-21T02:01:37.653Z,7.32
2018-10-21T02:04:12.668Z,7.35
2018-10-21T02:06:47.436Z,7.45
2018-10-21T02:09:22.130Z,7.41
2018-10-21T02:12:01.913Z,7.47
2018-10-21T02:14:36.977Z,7.53
2018-10-21T02:17:11.776Z,7.40
2018-10-21T02:19:48.864Z,7.41
2018-10-21T02:22:23.544Z,7.40
2018-10-21T02:24:58.182Z,7.42
2018-10-21T02:27:32.992Z,7.37
2018-10-21T02:30:08.879Z,7.12
2018-10-21T02:32:44.483Z,7.33
2018-10-21T02:35:19.842Z,7.24
2018-10-21T02:37:55.448Z,7.34
2018-10-21T02:41:47.017Z,7.32
2018-10-21T02:44:23.331Z,7.29
2018-10-21T02:46:59.013Z,7.34
2018-10-21T02:49:33.938Z,7.41
2018-10-21T02:52:10.135Z,7.48
2018-10-21T02:54:44.968Z,7.55
2018-10-21T02:57:22.917Z,7.58
2018-10-21T02:59:57.748Z,7.40
2018-10-21T03:02:32.795Z,7.38
2018-10-21T03:05:07.599Z,7.46
2018-10-21T03:07:42.458Z,7.58
2018-10-21T03:10:17.460Z,7.63
2018-10-21T03:12:53.101Z,7.65
2018-10-21T03:15:28.321Z,7.61
2018-10-21T03:18:03.550Z,7.61
2018-10-21T03:20:39.642Z,7.53
2018-10-21T03:23:14.820Z,7.18
2018-10-21T03:25:50.230Z,6.87
2018-10-21T03:28:25.161Z,6.77
2018-10-21T03:31:00.554Z,6.47
2018-10-21T03:33:35.543Z,6.26
2018-10-21T03:36:10.559Z,6.65
2018-10-21T03:38:45.313Z,6.36
2018-10-21T03:41:20.095Z,6.44
2018-10-21T03:43:55.105Z,6.57
2018-10-21T03:46:30.118Z,6.33
2018-10-21T03:49:04.988Z,6.20
2018-10-21T03:51:39.819Z,6.48
2018-10-21T03:54:14.758Z,6.60
2018-10-21T03:56:49.662Z,6.54
2018-10-21T03:59:24.612Z,6.55
2018-10-21T04:01:59.291Z,6.77
2018-10-21T04:04:33.994Z,6.96
2018-10-21T04:07:08.772Z,7.06
2018-10-21T04:09:43.680Z,7.17
2018-10-21T04:12:18.503Z,7.20
2018-10-21T04:14:53.386Z,7.17
2018-10-21T04:17:28.165Z,7.20
2018-10-21T04:20:02.914Z,7.19
2018-10-21T04:22:43.533Z,6.68
2018-10-21T04:25:18.524Z,6.67
2018-10-21T04:27:54.145Z,6.58
2018-10-21T04:30:30.305Z,6.27
2018-10-21T04:33:13.457Z,6.39
2018-10-21T04:35:48.280Z,6.55
2018-10-21T04:38:30.717Z,6.78
2018-10-21T04:41:05.665Z,6.92
2018-10-21T04:43:40.455Z,6.99
2018-10-21T04:46:15.396Z,7.06
2018-10-21T04:48:51.454Z,7.05
2018-10-21T04:51:26.139Z,7.16
2018-10-21T04:54:00.905Z,7.29
2018-10-21T04:56:35.814Z,6.88
2018-10-21T04:59:10.599Z,6.94
2018-10-21T05:01:46.352Z,7.05
2018-10-21T05:04:21.057Z,7.01
2018-10-21T05:06:55.711Z,6.41
2018-10-21T05:09:30.489Z,6.41
2018-10-21T05:12:05.683Z,6.43
2018-10-21T05:14:40.493Z,6.69
2018-10-21T05:17:15.423Z,6.57
2018-10-21T05:19:50.464Z,6.44
2018-10-21T05:22:25.271Z,6.62
2018-10-21T05:25:00.196Z,6.76
2018-10-21T05:27:34.878Z,6.89
2018-10-21T05:30:10.982Z,6.82
2018-10-21T05:32:45.783Z,6.71
2018-10-21T05:35:21.131Z,6.77
2018-10-21T05:37:56.029Z,6.84
2018-10-21T05:40:31.271Z,6.99
2018-10-21T05:43:06.312Z,6.56
2018-10-21T05:45:41.093Z,6.57
2018-10-21T05:48:16.042Z,6.91
2018-10-21T05:50:50.715Z,6.67
2018-10-21T05:53:25.837Z,6.85
2018-10-21T05:56:00.736Z,7.08
2018-10-21T05:58:35.654Z,7.20
2018-10-21T06:01:10.340Z,6.86
2018-10-21T06:03:46.071Z,6.84
2018-10-21T06:06:21.188Z,6.73
2018-10-21T06:08:56.429Z,6.68
2018-10-21T06:11:31.121Z,6.69
2018-10-21T06:14:06.250Z,6.94
2018-10-21T06:16:56.924Z,7.12
2018-10-21T06:19:36.384Z,7.37
2018-10-21T06:25:05.508Z,7.77
2018-10-21T06:27:40.675Z,8.01
2018-10-21T06:30:15.747Z,8.16
2018-10-21T06:32:50.394Z,8.19
2018-10-21T06:35:25.251Z,7.98
2018-10-21T06:38:00.128Z,8.07
2018-10-21T06:40:35.268Z,8.19
2018-10-21T06:43:10.289Z,8.24
2018-10-21T06:45:45.095Z,8.16
2018-10-21T06:48:20.240Z,8.18
2018-10-21T06:50:55.117Z,8.23
2018-10-21T06:53:29.774Z,8.30
2018-10-21T06:56:04.961Z,8.43
2018-10-21T06:58:39.820Z,8.52
2018-10-21T07:01:14.634Z,8.65
2018-10-21T07:03:49.706Z,8.88
2018-10-21T07:06:25.728Z,8.98
2018-10-21T07:09:01.910Z,9.26
2018-10-21T07:11:36.851Z,9.50
2018-10-21T07:14:11.601Z,9.64
2018-10-21T07:16:46.366Z,9.62
2018-10-21T07:19:21.478Z,9.42
2018-10-21T07:21:56.566Z,8.89
2018-10-21T07:24:31.516Z,8.99
2018-10-21T07:27:06.332Z,9.17
2018-10-21T07:29:41.271Z,9.10
2018-10-21T07:32:16.152Z,9.03
2018-10-21T07:34:50.766Z,9.27
2018-10-21T07:37:25.460Z,9.02
2018-10-21T07:40:00.412Z,8.87
2018-10-21T07:42:35.499Z,8.83
2018-10-21T07:45:10.362Z,9.08
2018-10-21T07:47:45.040Z,9.32
2018-10-21T07:50:22.211Z,9.11
2018-10-21T07:52:56.941Z,9.15
2018-10-21T07:55:32.423Z,8.95
2018-10-21T07:58:07.782Z,9.35
2018-10-21T08:00:42.832Z,9.78
2018-10-21T08:03:18.090Z,10.11
2018-10-21T08:05:58.546Z,10.19
2018-10-21T08:08:33.482Z,10.41
2018-10-21T08:11:08.493Z,10.71
2018-10-21T08:13:43.405Z,10.88
2018-10-21T08:16:18.569Z,11.06
2018-10-21T08:18:54.053Z,11.20
2018-10-21T08:21:28.921Z,10.50
2018-10-21T08:24:03.763Z,10.61
2018-10-21T08:26:38.539Z,10.59
2018-10-21T08:29:13.264Z,10.43
2018-10-21T08:31:48.191Z,10.45
2018-10-21T08:34:23.061Z,10.32
2018-10-21T08:36:57.994Z,10.68
2018-10-21T08:39:38.428Z,10.99
2018-10-21T08:42:13.250Z,11.31
2018-10-21T08:44:48.321Z,11.14
2018-10-21T08:47:23.365Z,11.44
2018-10-21T08:49:53.355Z,11.71
2018-10-21T08:52:28.407Z,11.89
2018-10-21T08:54:58.328Z,11.81
2018-10-21T08:57:28.271Z,11.89
2018-10-21T08:59:58.054Z,11.68
2018-10-21T09:02:27.821Z,11.57
2018-10-21T09:04:57.526Z,11.65
2018-10-21T09:07:27.248Z,11.71
2018-10-21T09:09:57.074Z,11.63
2018-10-21T09:12:27.101Z,11.37
2018-10-21T09:14:56.900Z,11.37
2018-10-21T09:17:26.870Z,11.22
2018-10-21T09:19:56.754Z,11.31
2018-10-21T09:22:26.474Z,11.51
2018-10-21T09:24:56.350Z,11.49
2018-10-21T09:27:26.378Z,11.40
2018-10-21T09:29:56.087Z,11.39
2018-10-21T09:32:25.852Z,11.19
2018-10-21T09:34:55.570Z,10.78
2018-10-21T09:37:25.271Z,10.97
2018-10-21T09:39:55.431Z,11.19
2018-10-21T09:42:28.054Z,11.44
2018-10-21T09:44:59.066Z,11.57
2018-10-21T09:47:28.804Z,11.41
2018-10-21T09:49:58.704Z,11.55
2018-10-21T09:52:28.649Z,11.71
2018-10-21T09:54:58.388Z,11.82
2018-10-21T09:57:28.391Z,11.84
2018-10-21T09:59:58.509Z,11.93
2018-10-21T10:02:36.532Z,11.86
2018-10-21T10:05:06.549Z,11.76
2018-10-21T10:07:36.661Z,11.84
2018-10-21T10:10:07.629Z,11.33
2018-10-21T10:12:37.646Z,11.17
2018-10-21T10:15:07.933Z,10.89
2018-10-21T10:17:37.814Z,10.90
2018-10-21T10:20:08.409Z,11.27
2018-10-21T10:22:38.221Z,11.49
2018-10-21T10:25:08.988Z,11.64
2018-10-21T10:27:38.943Z,11.55
2018-10-21T10:30:10.460Z,11.64
2018-10-21T10:32:41.421Z,11.32
2018-10-21T10:35:12.256Z,11.33
2018-10-21T10:37:42.304Z,11.66
2018-10-21T10:40:13.334Z,11.46
2018-10-21T10:42:43.383Z,11.48
2018-10-21T10:45:13.120Z,11.66
2018-10-21T10:47:42.882Z,11.77
2018-10-21T10:50:12.711Z,11.81
2018-10-21T10:52:42.681Z,11.41
2018-10-21T10:55:12.811Z,11.20
2018-10-21T10:57:42.662Z,11.25
2018-10-21T11:00:12.723Z,11.23
2018-10-21T11:02:42.678Z,11.38
2018-10-21T11:05:12.388Z,11.52
2018-10-21T11:07:42.108Z,11.66
2018-10-21T11:10:11.963Z,11.66
2018-10-21T11:12:41.896Z,11.69
2018-10-21T11:15:11.633Z,11.86
2018-10-21T11:17:41.446Z,11.95
2018-10-21T11:20:11.930Z,11.90
2018-10-21T11:22:41.747Z,12.08
2018-10-21T11:25:12.125Z,12.12
2018-10-21T11:27:41.998Z,12.22
2018-10-21T11:30:11.728Z,12.29
2018-10-21T11:32:41.499Z,12.25
2018-10-21T11:35:14.065Z,11.93
2018-10-21T11:37:43.891Z,11.68
2018-10-21T11:40:14.019Z,11.71
2018-10-21T11:42:43.999Z,11.82
2018-10-21T11:45:13.737Z,12.07
2018-10-21T11:47:43.483Z,12.17
2018-10-21T11:50:13.319Z,12.05
2018-10-21T11:52:43.407Z,12.00
2018-10-21T11:55:13.947Z,12.08
2018-10-21T11:57:44.089Z,12.17
2018-10-21T12:00:13.840Z,12.29
2018-10-21T12:02:43.543Z,12.36
2018-10-21T12:05:13.418Z,12.48
2018-10-21T12:07:43.321Z,12.43
2018-10-21T12:10:13.162Z,12.33
2018-10-21T12:12:43.108Z,12.40
2018-10-21T12:15:13.256Z,12.38
2018-10-21T12:17:43.320Z,12.51
2018-10-21T12:20:13.396Z,12.55
2018-10-21T12:22:43.367Z,12.45
2018-10-21T12:25:13.759Z,12.21
2018-10-21T12:27:43.684Z,12.22
2018-10-21T12:30:14.076Z,12.06
2018-10-21T12:32:44.845Z,11.83
2018-10-21T12:35:15.238Z,12.08
2018-10-21T12:37:45.197Z,12.17
2018-10-21T12:40:14.942Z,11.91
2018-10-21T12:42:45.269Z,12.00
2018-10-21T12:45:15.944Z,12.20
2018-10-21T12:47:46.569Z,12.32
2018-10-21T12:50:16.540Z,12.26
2018-10-21T12:52:46.269Z,12.14
2018-10-21T12:55:16.320Z,12.06
2018-10-21T12:57:46.293Z,11.91
2018-10-21T13:00:24.169Z,11.86
2018-10-21T13:02:54.032Z,11.85
2018-10-21T13:05:24.850Z,11.77
2018-10-21T13:07:54.582Z,11.76
2018-10-21T13:10:24.402Z,11.77
2018-10-21T13:12:54.394Z,12.01
2018-10-21T13:15:24.623Z,12.25
2018-10-21T13:17:54.781Z,12.43
2018-10-21T13:20:24.534Z,12.52
2018-10-21T13:22:55.737Z,12.59
2018-10-21T13:25:25.461Z,12.52
2018-10-21T13:27:55.328Z,12.34
2018-10-21T13:30:25.385Z,12.47
2018-10-21T13:32:55.125Z,12.59
2018-10-21T13:35:24.904Z,12.54
2018-10-21T13:37:54.804Z,12.69
2018-10-21T13:40:25.006Z,12.73
2018-10-21T13:42:54.988Z,12.81
2018-10-21T13:45:24.805Z,12.56
2018-10-21T13:47:54.494Z,12.37
2018-10-21T13:50:24.197Z,12.51
2018-10-21T13:52:54.081Z,12.55
2018-10-21T13:55:24.043Z,12.67
2018-10-21T13:57:53.791Z,12.68
2018-10-21T14:00:23.677Z,12.62
2018-10-21T14:02:53.588Z,12.62
2018-10-21T14:05:23.319Z,12.59
2018-10-21T14:07:53.195Z,12.69
2018-10-21T14:10:22.916Z,12.72
2018-10-21T14:12:52.632Z,12.64
2018-10-21T14:15:22.435Z,12.73
2018-10-21T14:17:52.361Z,12.83
2018-10-21T14:20:22.399Z,12.87
2018-10-21T14:22:52.567Z,12.82
2018-10-21T14:25:22.279Z,12.86
2018-10-21T14:27:51.963Z,12.76
2018-10-21T14:30:21.873Z,12.74
2018-10-21T14:32:51.746Z,12.45
2018-10-21T14:35:21.462Z,12.23
2018-10-21T14:37:51.246Z,12.28
2018-10-21T14:40:21.168Z,12.18
2018-10-21T14:42:50.919Z,12.29
2018-10-21T14:45:21.644Z,12.35
2018-10-21T14:47:51.586Z,12.42
2018-10-21T14:50:21.597Z,12.44
2018-10-21T14:52:51.453Z,12.47
2018-10-21T14:55:21.368Z,12.46
2018-10-21T14:57:51.119Z,12.36
2018-10-21T15:00:20.920Z,12.38
2018-10-21T15:02:50.844Z,12.42
2018-10-21T15:05:20.762Z,12.37
2018-10-21T15:07:51.039Z,12.40
2018-10-21T15:10:20.789Z,12.42
2018-10-21T15:14:15.088Z,12.39
2018-10-21T15:16:45.082Z,12.36
2018-10-21T15:19:15.537Z,12.37
2018-10-21T15:21:45.812Z,12.30
2018-10-21T15:24:15.524Z,12.08
2018-10-21T15:26:45.275Z,11.77
2018-10-21T15:29:15.124Z,11.71
2018-10-21T15:31:44.984Z,11.72
2018-10-21T15:34:14.771Z,11.83
2018-10-21T15:36:44.759Z,11.75
2018-10-21T15:39:14.462Z,11.63
2018-10-21T15:41:44.180Z,11.70
2018-10-21T15:44:14.021Z,11.85
2018-10-21T15:46:44.169Z,11.88
2018-10-21T15:49:13.881Z,11.75
2018-10-21T15:51:44.130Z,11.67
2018-10-21T15:54:13.948Z,11.70
2018-10-21T15:56:43.872Z,11.66
2018-10-21T15:59:13.632Z,11.69
2018-10-21T16:01:43.343Z,11.89
2018-10-21T16:04:14.451Z,11.96
2018-10-21T16:06:44.392Z,11.78
2018-10-21T16:09:14.192Z,11.76
2018-10-21T16:11:44.313Z,11.59
2018-10-21T16:14:14.157Z,11.42
2018-10-21T16:16:44.100Z,11.43
2018-10-21T16:19:13.827Z,11.68
2018-10-21T16:21:43.834Z,11.70
2018-10-21T16:24:13.796Z,11.70
2018-10-21T16:26:44.125Z,11.65
2018-10-21T16:29:14.552Z,11.62
2018-10-21T16:31:44.730Z,11.61
2018-10-21T16:34:14.918Z,11.49
2018-10-21T16:36:44.977Z,11.60
2018-10-21T16:39:14.760Z,11.52
2018-10-21T16:41:45.185Z,11.47
2018-10-21T16:44:16.076Z,11.21
2018-10-21T16:46:46.574Z,11.05
2018-10-21T16:49:16.310Z,10.88
2018-10-21T16:51:46.104Z,10.88
2018-10-21T16:54:16.310Z,11.00
2018-10-21T16:56:46.588Z,11.11
2018-10-21T16:59:16.441Z,11.19
2018-10-21T17:01:47.682Z,11.29
2018-10-21T17:04:18.456Z,11.45
2018-10-21T17:06:48.244Z,11.39
2018-10-21T17:09:17.984Z,11.43
2018-10-21T17:11:48.032Z,11.39
2018-10-21T17:14:18.083Z,11.45
2018-10-21T17:16:47.935Z,11.27
2018-10-21T17:19:18.339Z,11.06
2018-10-21T17:21:48.083Z,11.18
2018-10-21T17:24:17.868Z,11.10
2018-10-21T17:26:47.894Z,11.13
2018-10-21T17:29:17.766Z,11.06
2018-10-21T17:31:47.482Z,10.91
2018-10-21T17:34:17.365Z,10.92
2018-10-21T17:36:47.621Z,11.00
2018-10-21T17:39:20.978Z,11.16
2018-10-21T17:41:51.228Z,11.10
2018-10-21T17:44:21.087Z,10.77
2018-10-21T17:46:51.015Z,10.61
2018-10-21T17:49:22.440Z,10.74
2018-10-21T17:51:52.289Z,10.87
2018-10-21T17:54:22.240Z,10.88
2018-10-21T17:56:58.600Z,11.07
2018-10-21T17:59:28.824Z,11.02
2018-10-21T18:01:59.081Z,10.97
2018-10-21T18:04:28.934Z,10.88
2018-10-21T18:06:58.677Z,10.57
2018-10-21T18:09:28.407Z,10.44
2018-10-21T18:11:58.161Z,10.43
2018-10-21T18:14:27.890Z,10.46
2018-10-21T18:16:57.615Z,10.62
2018-10-21T18:19:27.749Z,10.65
2018-10-21T18:21:57.488Z,10.87
2018-10-21T18:24:27.255Z,10.88
2018-10-21T18:26:57.337Z,10.81
2018-10-21T18:29:27.251Z,10.76
2018-10-21T18:32:00.577Z,10.76
2018-10-21T18:34:34.007Z,10.87
2018-10-21T18:37:04.094Z,10.75
2018-10-21T18:39:35.302Z,10.69
2018-10-21T18:42:05.391Z,10.62
2018-10-21T18:44:35.146Z,10.63
2018-10-21T18:47:07.651Z,10.70
2018-10-21T18:49:37.383Z,10.60
2018-10-21T18:52:08.492Z,10.68
2018-10-21T18:54:38.461Z,10.63
2018-10-21T18:57:08.189Z,10.59
2018-10-21T18:59:37.968Z,10.61
2018-10-21T19:02:07.942Z,10.57
2018-10-21T19:04:37.687Z,10.56
2018-10-21T19:07:08.152Z,10.61
2018-10-21T19:09:38.058Z,10.69
2018-10-21T19:12:08.235Z,10.75
2018-10-21T19:14:38.137Z,10.61
2018-10-21T19:17:08.197Z,10.66
2018-10-21T19:19:47.776Z,10.48
2018-10-21T19:22:17.717Z,10.57
2018-10-21T19:24:47.712Z,10.58
2018-10-21T19:27:18.864Z,10.51
2018-10-21T19:29:50.057Z,10.50
2018-10-21T19:32:19.817Z,10.50
2018-10-21T19:34:50.635Z,10.57
2018-10-21T19:37:20.869Z,10.44
2018-10-21T19:39:53.095Z,10.41
2018-10-21T19:42:24.597Z,10.07
2018-10-21T19:44:54.334Z,10.19
2018-10-21T19:47:24.089Z,10.24
2018-10-21T19:49:54.973Z,10.20
2018-10-21T19:52:24.872Z,10.18
2018-10-21T19:54:54.609Z,10.18
2018-10-21T19:57:24.648Z,10.20
2018-10-21T19:59:59.539Z,10.24
2018-10-21T20:02:34.537Z,10.22
2018-10-21T20:05:10.272Z,10.15
2018-10-21T20:07:45.161Z,10.15
2018-10-21T20:10:20.344Z,10.25
2018-10-21T20:12:55.536Z,10.31
2018-10-21T20:15:30.668Z,10.35
2018-10-21T20:18:05.691Z,10.23
2018-10-21T20:20:40.666Z,10.31
2018-10-21T20:23:15.714Z,10.29
2018-10-21T20:25:54.220Z,10.32
2018-10-21T20:28:29.175Z,10.30
2018-10-21T20:31:04.178Z,10.11
2018-10-21T20:33:39.382Z,10.07
2018-10-21T20:36:14.516Z,9.92
2018-10-21T20:38:49.713Z,9.64
2018-10-21T20:41:24.634Z,9.28
2018-10-21T20:43:59.699Z,9.35
2018-10-21T20:46:34.638Z,9.58
2018-10-21T20:49:09.592Z,9.43
2018-10-21T20:51:44.911Z,9.52
2018-10-21T20:54:19.971Z,9.61
2018-10-21T20:56:54.918Z,9.53
2018-10-21T20:59:29.928Z,9.57
2018-10-21T21:02:05.133Z,9.56
2018-10-21T21:04:40.194Z,9.57
2018-10-21T21:07:14.934Z,9.53
2018-10-21T21:09:49.901Z,9.37
2018-10-21T21:12:24.772Z,9.28
2018-10-21T21:14:59.970Z,9.36
2018-10-21T21:17:34.892Z,9.42
2018-10-21T21:20:10.215Z,9.39
2018-10-21T21:22:44.990Z,9.31
2018-10-21T21:25:19.909Z,9.25
2018-10-21T21:27:54.958Z,9.27
2018-10-21T21:30:30.039Z,9.15
2018-10-21T21:33:05.475Z,9.23
2018-10-21T21:35:40.305Z,9.01
2018-10-21T21:38:15.329Z,8.97
2018-10-21T21:40:50.393Z,9.03
2018-10-21T21:43:25.196Z,8.90
2018-10-21T21:46:00.290Z,8.77
2018-10-21T21:48:35.105Z,8.79
2018-10-21T21:51:09.904Z,8.71
2018-10-21T21:53:44.806Z,8.53
2018-10-21T21:56:19.566Z,8.65
2018-10-21T21:58:54.484Z,8.72
2018-10-21T22:01:29.373Z,8.54
2018-10-21T22:04:04.326Z,8.69
2018-10-21T22:06:39.569Z,8.58
2018-10-21T22:09:14.353Z,8.43
2018-10-21T22:11:49.238Z,8.46
2018-10-21T22:14:24.049Z,8.37
2018-10-21T22:17:01.702Z,8.27
2018-10-21T22:19:36.578Z,8.32
2018-10-21T22:22:11.443Z,8.26
2018-10-21T22:24:46.382Z,8.24
2018-10-21T22:27:21.107Z,8.21
2018-10-21T22:29:55.832Z,8.12
2018-10-21T22:32:30.842Z,8.03
2018-10-21T22:35:06.284Z,7.89
2018-10-21T22:37:41.169Z,7.73
2018-10-21T22:40:15.943Z,7.51
2018-10-21T22:42:51.139Z,7.16
2018-10-21T22:45:25.784Z,6.83
2018-10-21T22:48:00.637Z,6.78
2018-10-21T22:50:35.697Z,6.90
2018-10-21T22:53:10.659Z,6.87
2018-10-21T22:55:45.441Z,7.05
2018-10-21T22:58:20.271Z,7.02
2018-10-21T23:00:55.193Z,7.23
2018-10-21T23:03:30.095Z,7.46
2018-10-21T23:06:04.861Z,7.53
2018-10-21T23:08:40.036Z,7.80
2018-10-21T23:11:14.677Z,7.94
2018-10-21T23:13:49.499Z,8.00
2018-10-21T23:16:24.353Z,7.94
2018-10-21T23:19:04.641Z,8.01
2018-10-21T23:21:39.560Z,8.12
2018-10-21T23:24:14.612Z,8.14
2018-10-21T23:26:49.556Z,7.72
2018-10-21T23:29:24.396Z,7.43
2018-10-21T23:31:59.274Z,7.15
2018-10-21T23:34:34.105Z,6.87
2018-10-21T23:37:08.969Z,6.68
2018-10-21T23:39:43.872Z,6.89
2018-10-21T23:42:18.805Z,7.08
2018-10-21T23:44:53.875Z,6.94
2018-10-21T23:47:28.794Z,7.02
2018-10-21T23:50:03.727Z,6.86
2018-10-21T23:52:38.459Z,6.91
2018-10-21T23:55:13.268Z,7.16
2018-10-21T23:57:48.035Z,7.44
